createdAt,value
2018-09-13T00:02:01.386Z,17.20
2018-09-13T00:04:29.789Z,17.20
2018-09-13T00:06:58.118Z,17.20
2018-09-13T00:09:26.500Z,17.10
2018-09-13T00:11:54.842Z,17.10
2018-09-13T00:14:23.196Z,17.00
2018-09-13T00:16:51.567Z,17.00
2018-09-13T00:19:19.936Z,17.00
2018-09-13T00:21:48.279Z,16.90
2018-09-13T00:24:16.635Z,16.90
2018-09-13T00:26:44.975Z,16.90
2018-09-13T00:29:13.336Z,16.90
2018-09-13T00:31:41.675Z,16.90
2018-09-13T00:34:10.048Z,16.90
2018-09-13T00:36:38.399Z,16.90
2018-09-13T00:39:07.445Z,16.90
2018-09-13T00:41:35.808Z,16.80
2018-09-13T00:44:04.227Z,16.80
2018-09-13T00:46:32.584Z,16.80
2018-09-13T00:49:01.044Z,16.80
2018-09-13T00:51:29.380Z,16.80
2018-09-13T00:53:57.724Z,16.80
2018-09-13T00:56:26.080Z,16.80
2018-09-13T00:58:54.427Z,16.80
2018-09-13T01:01:22.875Z,16.80
2018-09-13T01:03:51.415Z,16.80
2018-09-13T01:06:19.871Z,16.80
2018-09-13T01:08:48.212Z,16.80
2018-09-13T01:11:16.569Z,16.80
2018-09-13T01:13:44.907Z,16.70
2018-09-13T01:16:13.264Z,16.70
2018-09-13T01:18:41.581Z,16.70
2018-09-13T01:21:09.957Z,16.60
2018-09-13T01:23:38.296Z,16.60
2018-09-13T01:26:07.003Z,16.50
2018-09-13T01:28:35.324Z,16.40
2018-09-13T01:31:03.697Z,16.40
2018-09-13T01:33:32.047Z,16.30
2018-09-13T01:36:00.396Z,16.20
2018-09-13T01:38:28.708Z,16.10
2018-09-13T01:40:57.056Z,16.10
2018-09-13T01:43:25.384Z,16.00
2018-09-13T01:45:53.769Z,15.90
2018-09-13T01:48:22.251Z,15.90
2018-09-13T01:50:50.631Z,15.90
2018-09-13T01:53:18.970Z,15.90
2018-09-13T01:55:47.345Z,15.90
2018-09-13T01:58:15.696Z,15.80
2018-09-13T02:00:44.092Z,15.80
2018-09-13T02:03:12.435Z,15.80
2018-09-13T02:05:40.899Z,15.80
2018-09-13T02:08:09.227Z,15.80
2018-09-13T02:10:37.591Z,15.70
2018-09-13T02:13:06.064Z,15.70
2018-09-13T02:15:34.400Z,15.80
2018-09-13T02:18:02.787Z,15.70
2018-09-13T02:20:31.120Z,15.70
2018-09-13T02:22:59.500Z,15.70
2018-09-13T02:25:27.836Z,15.70
2018-09-13T02:27:56.227Z,15.70
2018-09-13T02:30:24.561Z,15.70
2018-09-13T02:32:52.944Z,15.70
2018-09-13T02:35:21.307Z,15.70
2018-09-13T02:37:49.707Z,15.60
2018-09-13T02:40:18.053Z,15.60
2018-09-13T02:42:46.488Z,15.60
2018-09-13T02:45:14.828Z,15.60
2018-09-13T02:47:43.248Z,15.60
2018-09-13T02:50:11.604Z,15.60
2018-09-13T02:52:39.975Z,15.60
2018-09-13T02:55:08.331Z,15.60
2018-09-13T02:57:36.712Z,15.60
2018-09-13T03:00:05.504Z,15.60
2018-09-13T03:02:33.899Z,15.70
2018-09-13T03:05:02.332Z,15.70
2018-09-13T03:07:30.728Z,15.70
2018-09-13T03:09:59.079Z,15.70
2018-09-13T03:12:27.455Z,15.70
2018-09-13T03:14:55.791Z,15.70
2018-09-13T03:17:24.173Z,15.70
2018-09-13T03:19:52.526Z,15.70
2018-09-13T03:22:20.908Z,15.70
2018-09-13T03:24:49.258Z,15.70
2018-09-13T03:27:17.651Z,15.70
2018-09-13T03:29:46.015Z,15.70
2018-09-13T03:32:14.387Z,15.70
2018-09-13T03:34:42.746Z,15.70
2018-09-13T03:37:11.131Z,15.70
2018-09-13T03:39:39.467Z,15.70
2018-09-13T03:42:07.851Z,15.70
2018-09-13T03:44:36.204Z,15.70
2018-09-13T03:47:04.603Z,15.70
2018-09-13T03:49:32.993Z,15.70
2018-09-13T03:52:01.340Z,15.80
2018-09-13T03:54:29.736Z,15.70
2018-09-13T03:56:58.072Z,15.80
2018-09-13T03:59:26.552Z,15.80
2018-09-13T04:01:54.892Z,15.80
2018-09-13T04:04:23.305Z,15.80
2018-09-13T04:06:51.665Z,15.80
2018-09-13T04:09:20.128Z,15.80
2018-09-13T04:11:48.424Z,15.80
2018-09-13T04:14:20.456Z,15.90
2018-09-13T04:16:48.810Z,15.90
2018-09-13T04:19:17.211Z,15.90
2018-09-13T04:21:45.608Z,15.90
2018-09-13T04:24:13.992Z,15.90
2018-09-13T04:26:42.340Z,15.90
2018-09-13T04:29:10.753Z,15.90
2018-09-13T04:31:39.100Z,15.90
2018-09-13T04:34:07.497Z,15.90
2018-09-13T04:36:35.836Z,16.00
2018-09-13T04:39:05.980Z,16.00
2018-09-13T04:41:34.311Z,16.00
2018-09-13T04:44:02.677Z,16.00
2018-09-13T04:46:31.056Z,15.90
2018-09-13T04:48:59.509Z,15.80
2018-09-13T04:51:27.784Z,15.80
2018-09-13T04:53:56.167Z,15.80
2018-09-13T04:56:24.503Z,15.80
2018-09-13T04:58:52.924Z,15.80
2018-09-13T05:01:21.258Z,15.80
2018-09-13T05:03:49.653Z,15.80
2018-09-13T05:06:18.032Z,15.80
2018-09-13T05:08:46.588Z,15.80
2018-09-13T05:11:14.995Z,15.80
2018-09-13T05:13:43.415Z,15.80
2018-09-13T05:16:11.803Z,15.80
2018-09-13T05:18:40.277Z,15.80
2018-09-13T05:21:08.760Z,15.70
2018-09-13T05:23:37.406Z,15.70
2018-09-13T05:26:05.769Z,15.70
2018-09-13T05:28:34.249Z,15.70
2018-09-13T05:31:02.705Z,15.70
2018-09-13T05:33:31.292Z,15.80
2018-09-13T05:35:59.667Z,15.80
2018-09-13T05:38:27.996Z,15.90
2018-09-13T05:40:56.372Z,15.90
2018-09-13T05:43:24.744Z,15.90
2018-09-13T05:45:53.232Z,16.00
2018-09-13T05:48:21.617Z,16.00
2018-09-13T05:50:49.992Z,16.00
2018-09-13T05:53:18.408Z,16.00
2018-09-13T05:55:46.784Z,16.00
2018-09-13T05:58:15.189Z,16.10
2018-09-13T06:00:43.562Z,16.10
2018-09-13T06:03:11.902Z,16.10
2018-09-13T06:05:40.281Z,16.10
2018-09-13T06:08:08.728Z,16.20
2018-09-13T06:10:37.145Z,16.30
2018-09-13T06:13:05.496Z,16.30
2018-09-13T06:15:33.876Z,16.40
2018-09-13T06:18:02.248Z,16.40
2018-09-13T06:20:30.692Z,16.40
2018-09-13T06:22:59.041Z,16.40
2018-09-13T06:25:27.420Z,16.40
2018-09-13T06:27:55.748Z,16.40
2018-09-13T06:30:24.124Z,16.40
2018-09-13T06:32:52.472Z,16.40
2018-09-13T06:35:20.843Z,16.50
2018-09-13T06:37:49.188Z,16.50
2018-09-13T06:40:17.582Z,16.50
2018-09-13T06:42:45.920Z,16.50
2018-09-13T06:45:14.325Z,16.50
2018-09-13T06:47:42.696Z,16.40
2018-09-13T06:50:11.071Z,16.40
2018-09-13T06:52:39.400Z,16.30
2018-09-13T06:55:07.783Z,16.30
2018-09-13T06:57:36.136Z,16.30
2018-09-13T07:00:04.616Z,16.40
2018-09-13T07:02:32.997Z,16.40
2018-09-13T07:05:01.436Z,16.50
2018-09-13T07:07:29.804Z,16.50
2018-09-13T07:09:58.138Z,16.60
2018-09-13T07:12:26.503Z,16.60
2018-09-13T07:14:54.843Z,16.60
2018-09-13T07:17:23.216Z,16.70
2018-09-13T07:19:51.555Z,16.70
2018-09-13T07:22:19.936Z,16.70
2018-09-13T07:24:48.280Z,16.80
2018-09-13T07:27:16.660Z,16.80
2018-09-13T07:29:44.994Z,16.80
2018-09-13T07:32:13.363Z,16.90
2018-09-13T07:34:41.719Z,16.90
2018-09-13T07:37:10.105Z,16.90
2018-09-13T07:39:38.587Z,17.00
2018-09-13T07:42:07.011Z,17.00
2018-09-13T07:44:35.479Z,17.10
2018-09-13T07:47:03.990Z,17.20
2018-09-13T07:49:32.482Z,17.20
2018-09-13T07:52:00.922Z,17.30
2018-09-13T07:54:29.367Z,17.40
2018-09-13T07:56:57.798Z,17.50
2018-09-13T07:59:26.446Z,17.50
2018-09-13T08:01:54.840Z,17.60
2018-09-13T08:04:23.243Z,17.70
2018-09-13T08:06:51.648Z,17.80
2018-09-13T08:09:20.001Z,17.80
2018-09-13T08:11:48.464Z,17.80
2018-09-13T08:14:16.768Z,17.90
2018-09-13T08:16:45.168Z,17.90
2018-09-13T08:19:13.536Z,18.00
2018-09-13T08:21:42.025Z,18.10
2018-09-13T08:24:10.322Z,18.20
2018-09-13T08:26:38.832Z,18.40
2018-09-13T08:29:07.225Z,18.50
2018-09-13T08:31:35.618Z,18.50
2018-09-13T08:34:04.036Z,18.50
2018-09-13T08:36:32.429Z,18.60
2018-09-13T08:39:00.820Z,18.70
2018-09-13T08:41:29.222Z,18.80
2018-09-13T08:43:57.574Z,18.80
2018-09-13T08:46:26.054Z,18.80
2018-09-13T08:48:54.445Z,19.00
2018-09-13T08:51:22.843Z,19.10
2018-09-13T08:53:51.271Z,19.30
2018-09-13T08:56:19.692Z,19.40
2018-09-13T08:58:48.086Z,19.50
2018-09-13T09:01:16.441Z,19.60
2018-09-13T09:03:44.885Z,19.70
2018-09-13T09:06:13.243Z,19.80
2018-09-13T09:08:41.736Z,19.90
2018-09-13T09:11:10.121Z,20.10
2018-09-13T09:13:38.552Z,20.20
2018-09-13T09:16:06.900Z,20.20
2018-09-13T09:18:35.398Z,20.20
2018-09-13T09:21:03.808Z,20.20
2018-09-13T09:23:32.272Z,20.30
2018-09-13T09:26:00.632Z,20.40
2018-09-13T09:28:29.051Z,20.40
2018-09-13T09:30:57.489Z,20.50
2018-09-13T09:33:25.912Z,20.60
2018-09-13T09:35:54.268Z,20.70
2018-09-13T09:38:22.644Z,20.70
2018-09-13T09:40:51.008Z,20.70
2018-09-13T09:43:19.415Z,20.70
2018-09-13T09:45:47.788Z,20.80
2018-09-13T09:48:16.220Z,20.80
2018-09-13T09:50:44.588Z,20.80
2018-09-13T09:53:12.996Z,20.80
2018-09-13T09:55:41.340Z,20.80
2018-09-13T09:58:09.758Z,20.90
2018-09-13T10:00:43.505Z,20.90
2018-09-13T10:03:11.984Z,20.90
2018-09-13T10:05:40.324Z,21.00
2018-09-13T10:08:08.809Z,21.00
2018-09-13T10:10:37.156Z,21.10
2018-09-13T10:13:05.757Z,21.20
2018-09-13T10:15:39.365Z,21.20
2018-09-13T10:18:13.040Z,21.30
2018-09-13T10:20:46.815Z,21.40
2018-09-13T10:23:20.565Z,21.40
2018-09-13T10:25:54.325Z,21.40
2018-09-13T10:28:28.023Z,21.40
2018-09-13T10:31:01.804Z,21.40
2018-09-13T10:33:35.655Z,21.50
2018-09-13T10:36:09.249Z,21.40
2018-09-13T10:38:43.083Z,21.40
2018-09-13T10:41:16.940Z,21.40
2018-09-13T10:43:50.537Z,21.50
2018-09-13T10:46:24.009Z,21.50
2018-09-13T10:48:57.983Z,21.50
2018-09-13T10:51:31.947Z,21.50
2018-09-13T10:54:05.704Z,21.50
2018-09-13T10:56:34.272Z,21.50
2018-09-13T10:59:02.828Z,21.60
2018-09-13T11:01:31.393Z,21.60
2018-09-13T11:03:59.952Z,21.60
2018-09-13T11:06:28.371Z,21.70
2018-09-13T11:08:57.072Z,21.70
2018-09-13T11:11:25.775Z,21.70
2018-09-13T11:13:58.855Z,21.70
2018-09-13T11:16:27.539Z,21.70
2018-09-13T11:18:56.018Z,21.80
2018-09-13T11:21:24.601Z,21.90
2018-09-13T11:23:52.975Z,21.90
2018-09-13T11:26:21.446Z,22.00
2018-09-13T11:28:49.953Z,22.10
2018-09-13T11:31:18.561Z,22.10
2018-09-13T11:33:47.102Z,22.20
2018-09-13T11:36:15.571Z,22.20
2018-09-13T11:38:44.067Z,22.20
2018-09-13T11:41:12.731Z,22.30
2018-09-13T11:43:41.367Z,22.40
2018-09-13T11:46:09.841Z,22.40
2018-09-13T11:48:38.389Z,22.40
2018-09-13T11:51:06.994Z,22.40
2018-09-13T11:53:35.582Z,22.50
2018-09-13T11:56:04.117Z,22.50
2018-09-13T11:58:32.933Z,22.60
2018-09-13T12:01:01.579Z,22.70
2018-09-13T12:03:30.017Z,22.80
2018-09-13T12:05:58.407Z,22.80
2018-09-13T12:08:26.903Z,22.80
2018-09-13T12:10:55.445Z,22.80
2018-09-13T12:13:23.956Z,22.70
2018-09-13T12:15:52.664Z,22.60
2018-09-13T12:18:21.348Z,22.50
2018-09-13T12:20:49.991Z,22.50
2018-09-13T12:23:18.702Z,22.60
2018-09-13T12:25:47.471Z,22.60
2018-09-13T12:28:15.868Z,22.70
2018-09-13T12:30:44.347Z,22.70
2018-09-13T12:33:12.753Z,22.60
2018-09-13T12:35:41.155Z,22.50
2018-09-13T12:38:09.632Z,22.40
2018-09-13T12:40:37.981Z,22.40
2018-09-13T12:43:06.400Z,22.40
2018-09-13T12:45:34.792Z,22.30
2018-09-13T12:48:03.292Z,22.30
2018-09-13T12:50:31.785Z,22.30
2018-09-13T12:53:00.173Z,22.40
2018-09-13T12:55:32.806Z,22.40
2018-09-13T12:58:01.580Z,22.40
2018-09-13T13:00:30.018Z,22.40
2018-09-13T13:02:58.401Z,22.50
2018-09-13T13:05:26.845Z,22.50
2018-09-13T13:07:55.252Z,22.50
2018-09-13T13:10:23.660Z,22.50
2018-09-13T13:12:52.029Z,22.60
2018-09-13T13:15:20.424Z,22.60
2018-09-13T13:17:48.776Z,22.60
2018-09-13T13:20:18.028Z,22.60
2018-09-13T13:22:46.407Z,22.50
2018-09-13T13:25:14.795Z,22.50
2018-09-13T13:27:43.233Z,22.60
2018-09-13T13:30:11.572Z,22.70
2018-09-13T13:32:39.924Z,22.80
2018-09-13T13:35:08.316Z,22.90
2018-09-13T13:37:36.691Z,22.90
2018-09-13T13:40:05.202Z,22.90
2018-09-13T13:42:33.552Z,23.00
2018-09-13T13:45:01.940Z,23.00
2018-09-13T13:47:30.311Z,22.90
2018-09-13T13:49:58.692Z,22.90
2018-09-13T13:52:27.056Z,22.80
2018-09-13T13:54:55.437Z,22.80
2018-09-13T13:57:23.779Z,22.70
2018-09-13T13:59:52.181Z,22.70
2018-09-13T14:02:20.548Z,22.70
2018-09-13T14:04:48.999Z,22.70
2018-09-13T14:07:17.395Z,22.80
2018-09-13T14:09:45.774Z,22.80
2018-09-13T14:12:14.213Z,22.90
2018-09-13T14:14:42.560Z,22.90
2018-09-13T14:17:10.939Z,22.90
2018-09-13T14:19:39.334Z,22.90
2018-09-13T14:22:07.732Z,22.80
2018-09-13T14:24:36.156Z,22.80
2018-09-13T14:27:04.640Z,22.80
2018-09-13T14:29:33.108Z,22.80
2018-09-13T14:32:01.459Z,22.80
2018-09-13T14:34:29.865Z,22.80
2018-09-13T14:36:58.345Z,22.80
2018-09-13T14:39:26.723Z,22.80
2018-09-13T14:41:55.108Z,22.70
2018-09-13T14:44:23.525Z,22.60
2018-09-13T14:46:51.941Z,22.50
2018-09-13T14:49:20.295Z,22.40
2018-09-13T14:51:48.704Z,22.30
2018-09-13T14:54:17.124Z,22.30
2018-09-13T14:56:45.470Z,22.20
2018-09-13T14:59:13.950Z,22.20
2018-09-13T15:01:42.295Z,22.10
2018-09-13T15:04:10.683Z,21.90
2018-09-13T15:06:39.085Z,21.80
2018-09-13T15:09:10.175Z,21.60
2018-09-13T15:11:38.528Z,21.50
2018-09-13T15:14:06.936Z,21.40
2018-09-13T15:16:35.325Z,21.30
2018-09-13T15:19:03.711Z,21.10
2018-09-13T15:21:32.075Z,21.00
2018-09-13T15:24:00.431Z,20.80
2018-09-13T15:26:29.320Z,20.70
2018-09-13T15:28:57.719Z,20.60
2018-09-13T15:31:26.150Z,20.40
2018-09-13T15:33:54.468Z,20.30
2018-09-13T15:36:22.853Z,20.20
2018-09-13T15:38:51.208Z,20.10
2018-09-13T15:41:19.579Z,20.00
2018-09-13T15:43:48.111Z,19.80
2018-09-13T15:46:16.547Z,19.70
2018-09-13T15:48:45.028Z,19.50
2018-09-13T15:51:13.368Z,19.30
2018-09-13T15:53:41.764Z,19.20
2018-09-13T15:56:10.133Z,19.10
2018-09-13T15:58:38.536Z,19.00
2018-09-13T16:01:06.882Z,18.90
2018-09-13T16:03:35.259Z,18.60
2018-09-13T16:06:03.619Z,18.40
2018-09-13T16:08:32.088Z,18.10
2018-09-13T16:11:00.468Z,17.70
2018-09-13T16:13:28.952Z,17.40
2018-09-13T16:15:57.321Z,17.20
2018-09-13T16:18:25.695Z,16.90
2018-09-13T16:20:54.157Z,16.60
2018-09-13T16:23:22.452Z,16.40
2018-09-13T16:25:50.828Z,16.20
2018-09-13T16:28:19.225Z,16.10
2018-09-13T16:30:47.574Z,16.00
2018-09-13T16:33:15.912Z,16.00
2018-09-13T16:35:47.460Z,16.00
2018-09-13T16:38:21.020Z,16.00
2018-09-13T16:40:54.732Z,15.90
2018-09-13T16:43:28.387Z,15.90
2018-09-13T16:45:56.861Z,16.00
2018-09-13T16:48:29.468Z,16.00
2018-09-13T16:50:57.843Z,16.00
2018-09-13T16:53:26.219Z,16.00
2018-09-13T16:55:54.611Z,16.00
2018-09-13T16:58:22.968Z,16.00
2018-09-13T17:00:51.360Z,15.90
2018-09-13T17:03:19.743Z,15.90
2018-09-13T17:05:48.092Z,15.80
2018-09-13T17:08:16.489Z,15.90
2018-09-13T17:10:44.849Z,15.90
2018-09-13T17:13:13.293Z,15.90
2018-09-13T17:15:41.624Z,15.90
2018-09-13T17:18:10.009Z,15.90
2018-09-13T17:20:38.372Z,15.90
2018-09-13T17:23:06.842Z,15.90
2018-09-13T17:25:35.237Z,16.00
2018-09-13T17:28:03.588Z,16.00
2018-09-13T17:30:31.987Z,16.10
2018-09-13T17:33:00.367Z,16.00
2018-09-13T17:35:29.511Z,16.10
2018-09-13T17:37:57.897Z,16.10
2018-09-13T17:40:26.260Z,16.00
2018-09-13T17:42:54.641Z,15.90
2018-09-13T17:45:23.044Z,15.90
2018-09-13T17:47:51.396Z,15.80
2018-09-13T17:50:19.757Z,15.80
2018-09-13T17:52:48.360Z,15.80
2018-09-13T17:55:16.810Z,15.80
2018-09-13T17:57:45.208Z,15.80
2018-09-13T18:00:14.187Z,15.80
2018-09-13T18:02:42.559Z,15.70
2018-09-13T18:05:10.929Z,15.60
2018-09-13T18:07:39.318Z,15.60
2018-09-13T18:10:07.700Z,15.60
2018-09-13T18:12:36.106Z,15.40
2018-09-13T18:15:04.550Z,15.40
2018-09-13T18:17:32.975Z,15.40
2018-09-13T18:20:01.364Z,15.40
2018-09-13T18:22:29.712Z,15.40
2018-09-13T18:24:58.084Z,15.50
2018-09-13T18:27:26.458Z,15.40
2018-09-13T18:29:54.835Z,15.40
2018-09-13T18:32:23.175Z,15.30
2018-09-13T18:34:51.552Z,15.30
2018-09-13T18:37:20.227Z,15.30
2018-09-13T18:39:48.604Z,15.30
2018-09-13T18:42:16.952Z,15.30
2018-09-13T18:44:45.339Z,15.30
2018-09-13T18:47:13.979Z,15.30
2018-09-13T18:49:42.372Z,15.30
2018-09-13T18:52:10.766Z,15.40
2018-09-13T18:54:39.113Z,15.40
2018-09-13T18:57:07.504Z,15.40
2018-09-13T18:59:36.304Z,15.40
2018-09-13T19:02:04.632Z,15.40
2018-09-13T19:04:32.967Z,15.40
2018-09-13T19:07:01.349Z,15.40
2018-09-13T19:09:29.734Z,15.30
2018-09-13T19:11:58.150Z,15.40
2018-09-13T19:14:26.736Z,15.30
2018-09-13T19:16:55.217Z,15.30
2018-09-13T19:19:23.556Z,15.30
2018-09-13T19:21:51.970Z,15.30
2018-09-13T19:24:20.328Z,15.30
2018-09-13T19:26:48.759Z,15.30
2018-09-13T19:29:17.107Z,15.30
2018-09-13T19:31:45.493Z,15.30
2018-09-13T19:34:13.844Z,15.20
2018-09-13T19:36:42.247Z,15.20
2018-09-13T19:39:12.111Z,15.20
2018-09-13T19:41:41.062Z,15.10
2018-09-13T19:44:09.638Z,15.10
2018-09-13T19:46:37.954Z,15.00
2018-09-13T19:49:06.360Z,15.00
2018-09-13T19:51:34.770Z,15.00
2018-09-13T19:54:03.152Z,15.00
2018-09-13T19:56:31.532Z,15.00
2018-09-13T19:58:59.897Z,15.00
2018-09-13T20:01:28.300Z,15.00
2018-09-13T20:03:56.686Z,15.00
2018-09-13T20:06:25.108Z,15.00
2018-09-13T20:08:53.556Z,15.00
2018-09-13T20:11:21.963Z,15.00
2018-09-13T20:13:50.352Z,15.00
2018-09-13T20:16:18.728Z,15.00
2018-09-13T20:18:47.177Z,15.00
2018-09-13T20:21:15.824Z,15.00
2018-09-13T20:23:44.157Z,14.90
2018-09-13T20:26:12.556Z,15.00
2018-09-13T20:28:40.969Z,15.00
2018-09-13T20:31:09.315Z,14.90
2018-09-13T20:33:37.663Z,14.80
2018-09-13T20:36:06.013Z,14.80
2018-09-13T20:38:34.396Z,14.70
2018-09-13T20:41:02.800Z,14.70
2018-09-13T20:43:31.279Z,14.60
2018-09-13T20:45:59.619Z,14.60
2018-09-13T20:48:28.191Z,14.60
2018-09-13T20:50:56.508Z,14.60
2018-09-13T20:53:24.873Z,14.60
2018-09-13T20:55:53.260Z,14.70
2018-09-13T20:58:21.617Z,14.70
2018-09-13T21:00:50.118Z,14.70
2018-09-13T21:03:18.451Z,14.80
2018-09-13T21:05:46.944Z,14.70
2018-09-13T21:08:15.377Z,14.80
2018-09-13T21:10:43.725Z,14.80
2018-09-13T21:13:12.121Z,14.80
2018-09-13T21:15:40.491Z,14.80
2018-09-13T21:18:08.877Z,14.80
2018-09-13T21:20:37.238Z,14.80
2018-09-13T21:23:05.644Z,14.80
2018-09-13T21:25:34.028Z,14.70
2018-09-13T21:28:02.396Z,14.70
2018-09-13T21:30:30.732Z,14.70
2018-09-13T21:32:59.121Z,14.60
2018-09-13T21:35:27.476Z,14.60
2018-09-13T21:37:55.905Z,14.50
2018-09-13T21:40:24.480Z,14.50
2018-09-13T21:42:52.876Z,14.50
2018-09-13T21:45:21.244Z,14.60
2018-09-13T21:47:49.636Z,14.50
2018-09-13T21:50:17.991Z,14.60
2018-09-13T21:52:46.386Z,14.60
2018-09-13T21:55:14.729Z,14.60
2018-09-13T21:57:43.116Z,14.60
2018-09-13T22:00:11.956Z,14.60
2018-09-13T22:02:40.540Z,14.60
2018-09-13T22:05:08.917Z,14.60
2018-09-13T22:07:37.717Z,14.60
2018-09-13T22:10:06.091Z,14.60
2018-09-13T22:12:34.492Z,14.60
2018-09-13T22:15:02.914Z,14.60
2018-09-13T22:17:31.305Z,14.50
2018-09-13T22:19:59.680Z,14.50
2018-09-13T22:22:28.029Z,14.50
2018-09-13T22:24:56.420Z,14.50
2018-09-13T22:27:24.771Z,14.50
2018-09-13T22:29:53.186Z,14.50
2018-09-13T22:32:21.534Z,14.50
2018-09-13T22:34:49.976Z,14.50
2018-09-13T22:37:18.343Z,14.50
2018-09-13T22:39:46.692Z,14.50
2018-09-13T22:42:15.051Z,14.50
2018-09-13T22:44:43.784Z,14.40
2018-09-13T22:47:12.724Z,14.50
2018-09-13T22:49:41.675Z,14.50
2018-09-13T22:52:10.282Z,14.40
2018-09-13T22:54:38.712Z,14.40
2018-09-13T22:57:07.343Z,14.40
2018-09-13T22:59:35.680Z,14.40
2018-09-13T23:02:04.086Z,14.40
2018-09-13T23:04:32.420Z,14.40
2018-09-13T23:07:00.808Z,14.30
2018-09-13T23:09:29.180Z,14.40
2018-09-13T23:11:57.525Z,14.30
2018-09-13T23:14:25.908Z,14.30
2018-09-13T23:16:54.292Z,14.30
2018-09-13T23:19:22.672Z,14.30
2018-09-13T23:21:51.063Z,14.30
2018-09-13T23:24:19.456Z,14.30
2018-09-13T23:26:47.803Z,14.30
2018-09-13T23:29:16.175Z,14.30
2018-09-13T23:31:44.519Z,14.30
2018-09-13T23:34:12.928Z,14.30
2018-09-13T23:36:41.279Z,14.30
2018-09-13T23:39:10.192Z,14.20
2018-09-13T23:41:39.527Z,14.20
2018-09-13T23:44:07.885Z,14.20
2018-09-13T23:46:36.485Z,14.20
2018-09-13T23:49:05.049Z,14.20
2018-09-13T23:51:33.643Z,14.20
2018-09-13T23:54:02.003Z,14.10
2018-09-13T23:56:30.382Z,14.00
2018-09-13T23:58:58.764Z,14.00
